Time;durP1;ratioP1;P1;durP2;ratioP2;P2;SDS_P1;SDS_P2;PMS_P1;PMS_P2;Temp;Humidity;BMP_temperature;BMP_pressure;BME280_temperature;BME280_humidity;BME280_pressure;Samples;Min_cycle;Max_cycle;Signal;HPM_P1;HPM_P2
2022/12/04 00:01:21;;;;;;;4.70;1.67;;;;;;;;;;5037970;28;20028;-85
2022/12/04 00:03:47;;;;;;;3.60;1.95;;;;;;;;;;5036616;28;20544;-84
2022/12/04 00:06:17;;;;;;;0.70;0.70;;;;;;;;;;5043338;28;20108;-84
2022/12/04 00:08:44;;;;;;;1.67;1.23;;;;;;;;;;5042277;28;20100;-84
2022/12/04 00:11:12;;;;;;;1.30;1.20;;;;;;;;;;5043174;28;20025;-85
2022/12/04 00:13:39;;;;;;;1.20;1.05;;;;;;;;;;5040224;28;20056;-84
2022/12/04 00:16:12;;;;;;;1.17;1.08;;;;;;;;;;5041054;28;20031;-84
2022/12/04 00:18:37;;;;;;;1.50;1.40;;;;;;;;;;5039499;28;20107;-85
2022/12/04 00:21:04;;;;;;;2.53;1.35;;;;;;;;;;5042843;28;20104;-84
2022/12/04 00:23:31;;;;;;;1.65;1.45;;;;;;;;;;5038910;28;20028;-84
2022/12/04 00:26:08;;;;;;;1.30;1.20;;;;;;;;;;5039701;28;20060;-84
2022/12/04 00:28:34;;;;;;;3.03;1.17;;;;;;;;;;5036628;28;20464;-85
2022/12/04 00:31:05;;;;;;;1.00;0.93;;;;;;;;;;5038813;28;20045;-84
2022/12/04 00:33:30;;;;;;;0.68;0.68;;;;;;;;;;5045144;28;20033;-84
2022/12/04 00:35:57;;;;;;;1.35;0.75;;;;;;;;;;5041473;28;20056;-84
2022/12/04 00:38:22;;;;;;;0.80;0.80;;;;;;;;;;5040226;28;20025;-84
2022/12/04 00:40:49;;;;;;;1.98;1.15;;;;;;;;;;5050673;28;20033;-85
2022/12/04 00:43:15;;;;;;;0.88;0.70;;;;;;;;;;5045548;28;20033;-84
2022/12/04 00:45:41;;;;;;;1.08;1.08;;;;;;;;;;5046657;28;20393;-84
2022/12/04 00:48:06;;;;;;;1.75;1.20;;;;;;;;;;5036606;28;20019;-84
2022/12/04 00:50:31;;;;;;;0.80;0.80;;;;;;;;;;5046190;28;20029;-86
2022/12/04 00:52:57;;;;;;;2.85;1.50;;;;;;;;;;5036046;28;20025;-87
2022/12/04 00:55:22;;;;;;;0.95;0.82;;;;;;;;;;5047845;28;20056;-85
2022/12/04 00:57:48;;;;;;;1.58;1.00;;;;;;;;;;5039950;28;20038;-86
2022/12/04 01:00:13;;;;;;;2.15;1.67;;;;;;;;;;5047245;28;20048;-86
2022/12/04 01:02:39;;;;;;;3.70;1.88;;;;;;;;;;5041028;28;20024;-85
2022/12/04 01:05:05;;;;;;;1.73;1.10;;;;;;;;;;5045200;28;20028;-85
2022/12/04 01:07:30;;;;;;;2.30;1.50;;;;;;;;;;5042247;28;20059;-85
2022/12/04 01:09:56;;;;;;;2.25;0.88;;;;;;;;;;5039108;28;20359;-85
2022/12/04 01:12:21;;;;;;;1.13;0.90;;;;;;;;;;5036871;28;20025;-85
2022/12/04 01:14:46;;;;;;;1.70;0.65;;;;;;;;;;5040660;28;20078;-86
2022/12/04 01:17:12;;;;;;;1.20;0.93;;;;;;;;;;5045003;28;20033;-85
2022/12/04 01:19:38;;;;;;;1.42;1.33;;;;;;;;;;5043373;28;20067;-85
2022/12/04 01:22:03;;;;;;;1.50;0.88;;;;;;;;;;5042239;28;20397;-85
2022/12/04 01:24:29;;;;;;;0.90;0.75;;;;;;;;;;5040972;28;20067;-86
2022/12/04 01:26:54;;;;;;;2.80;0.80;;;;;;;;;;5040682;28;20140;-85
2022/12/04 01:29:20;;;;;;;1.50;1.20;;;;;;;;;;5041514;28;20017;-86
2022/12/04 01:31:45;;;;;;;0.65;0.52;;;;;;;;;;5035242;28;20079;-85
2022/12/04 01:34:11;;;;;;;0.60;0.60;;;;;;;;;;5036817;28;20025;-85
2022/12/04 01:36:36;;;;;;;1.42;1.17;;;;;;;;;;5039855;28;20469;-85
2022/12/04 01:39:01;;;;;;;0.40;0.32;;;;;;;;;;5041054;28;20449;-85
2022/12/04 01:41:29;;;;;;;0.35;0.35;;;;;;;;;;5041723;28;20088;-86
2022/12/04 01:44:12;;;;;;;0.73;0.68;;;;;;;;;;5049854;28;20037;-86
2022/12/04 01:46:39;;;;;;;0.57;0.57;;;;;;;;;;5046190;28;20028;-85
2022/12/04 01:49:09;;;;;;;2.00;1.80;;;;;;;;;;5042131;28;20504;-85
2022/12/04 01:51:45;;;;;;;2.15;1.58;;;;;;;;;;5036920;28;20021;-86
2022/12/04 01:54:21;;;;;;;0.77;0.77;;;;;;;;;;5038849;28;20481;-86
2022/12/04 01:56:53;;;;;;;0.75;0.75;;;;;;;;;;5035045;28;20021;-85
2022/12/04 01:59:22;;;;;;;1.00;0.63;;;;;;;;;;5038492;28;20021;-86
2022/12/04 02:02:01;;;;;;;1.90;0.88;;;;;;;;;;5038243;28;20028;-86
2022/12/04 02:04:27;;;;;;;0.93;0.80;;;;;;;;;;5037961;28;20531;-86
2022/12/04 02:06:52;;;;;;;1.15;0.88;;;;;;;;;;5040989;28;20055;-86
2022/12/04 02:09:20;;;;;;;1.10;1.00;;;;;;;;;;5037532;28;20033;-85
2022/12/04 02:11:55;;;;;;;1.58;1.48;;;;;;;;;;5043818;28;20016;-86
2022/12/04 02:14:33;;;;;;;1.75;1.38;;;;;;;;;;5042055;28;20029;-86
2022/12/04 02:17:19;;;;;;;0.98;0.90;;;;;;;;;;5045718;28;20100;-87
2022/12/04 02:19:47;;;;;;;0.70;0.70;;;;;;;;;;5039884;28;20055;-86
2022/12/04 02:22:44;;;;;;;2.42;1.13;;;;;;;;;;5038897;28;20112;-86
2022/12/04 02:25:28;;;;;;;0.65;0.65;;;;;;;;;;5031305;28;20489;-86
2022/12/04 02:28:08;;;;;;;2.50;1.42;;;;;;;;;;5040070;28;20477;-86
2022/12/04 02:30:37;;;;;;;1.17;0.77;;;;;;;;;;5043251;28;20043;-85
2022/12/04 02:33:20;;;;;;;1.88;1.05;;;;;;;;;;5041072;28;20033;-85
2022/12/04 02:35:51;;;;;;;2.22;1.40;;;;;;;;;;5037545;28;20458;-85
2022/12/04 02:38:16;;;;;;;0.50;0.50;;;;;;;;;;5041570;28;20044;-85
2022/12/04 02:40:49;;;;;;;2.83;1.10;;;;;;;;;;5041437;28;20474;-85
2022/12/04 02:43:19;;;;;;;3.65;1.13;;;;;;;;;;5043397;28;20039;-85
2022/12/04 02:45:54;;;;;;;1.20;1.10;;;;;;;;;;5041184;28;20378;-86
2022/12/04 02:48:21;;;;;;;2.97;1.08;;;;;;;;;;5040114;28;20018;-85
2022/12/04 02:50:50;;;;;;;1.20;0.80;;;;;;;;;;5040866;28;20026;-85
2022/12/04 02:53:20;;;;;;;1.85;0.93;;;;;;;;;;5041988;28;20106;-85
2022/12/04 02:55:48;;;;;;;;;;;;;;;;;;5039417;28;20033;-84
2022/12/04 02:58:20;;;;;;;1.33;1.23;;;;;;;;;;5042279;28;19972;-84
2022/12/04 03:00:47;;;;;;;1.05;0.60;;;;;;;;;;5042440;28;20036;-85
2022/12/04 03:03:23;;;;;;;0.98;0.93;;;;;;;;;;5043881;28;20036;-84
2022/12/04 03:06:00;;;;;;;0.70;0.70;;;;;;;;;;5037360;28;20078;-84
2022/12/04 03:08:32;;;;;;;1.85;0.85;;;;;;;;;;5038135;28;20028;-84
2022/12/04 03:10:59;;;;;;;1.70;0.80;;;;;;;;;;5042118;28;20406;-84
2022/12/04 03:13:34;;;;;;;0.63;0.63;;;;;;;;;;5040985;28;20485;-86
2022/12/04 03:16:02;;;;;;;1.48;1.38;;;;;;;;;;5037562;28;20029;-85
2022/12/04 03:18:36;;;;;;;0.55;0.55;;;;;;;;;;5036647;28;20377;-85
2022/12/04 03:21:23;;;;;;;0.80;0.80;;;;;;;;;;5042387;28;20030;-85
2022/12/04 03:24:10;;;;;;;2.55;1.58;;;;;;;;;;5032231;28;20036;-84
2022/12/04 03:26:46;;;;;;;0.88;0.88;;;;;;;;;;5042034;28;20175;-84
2022/12/04 03:29:30;;;;;;;0.55;0.50;;;;;;;;;;5039717;28;20032;-85
2022/12/04 03:32:12;;;;;;;2.22;1.02;;;;;;;;;;5042922;28;20078;-85
2022/12/04 03:34:58;;;;;;;0.52;0.52;;;;;;;;;;5041583;28;20358;-84
2022/12/04 03:37:59;;;;;;;1.45;0.80;;;;;;;;;;5044469;28;20028;-86
2022/12/04 03:40:36;;;;;;;0.60;0.60;;;;;;;;;;5041019;28;20290;-84
2022/12/04 03:43:07;;;;;;;0.82;0.82;;;;;;;;;;5044073;28;20087;-85
2022/12/04 03:45:48;;;;;;;2.05;1.83;;;;;;;;;;5047483;28;20029;-85
2022/12/04 03:48:20;;;;;;;1.17;1.08;;;;;;;;;;5042935;28;20079;-86
2022/12/04 03:51:11;;;;;;;1.05;1.05;;;;;;;;;;5042519;28;20032;-84
2022/12/04 03:53:46;;;;;;;0.63;0.63;;;;;;;;;;5045709;28;20032;-85
2022/12/04 03:56:25;;;;;;;1.08;0.80;;;;;;;;;;5045266;28;20033;-84
2022/12/04 03:58:57;;;;;;;1.25;0.80;;;;;;;;;;5044407;28;20074;-84
2022/12/04 04:01:33;;;;;;;0.98;0.80;;;;;;;;;;5039909;28;20059;-85
2022/12/04 04:04:03;;;;;;;1.90;0.75;;;;;;;;;;5040279;28;20021;-84
2022/12/04 04:06:32;;;;;;;1.48;0.80;;;;;;;;;;5045699;28;20039;-85
2022/12/04 04:09:02;;;;;;;1.95;1.17;;;;;;;;;;5050547;28;20095;-85
2022/12/04 04:11:32;;;;;;;0.70;0.70;;;;;;;;;;5044241;28;20025;-84
2022/12/04 04:25:17;;;;;;;0.68;0.68;;;;;;;;;;5043192;28;20926;-82
2022/12/04 04:27:51;;;;;;;4.30;1.17;;;;;;;;;;5040143;28;20032;-81
2022/12/04 04:30:16;;;;;;;0.43;0.43;;;;;;;;;;5042164;28;20051;-82
2022/12/04 04:32:51;;;;;;;0.60;0.60;;;;;;;;;;5044448;28;20029;-82
2022/12/04 04:35:29;;;;;;;1.00;0.95;;;;;;;;;;5042322;28;20399;-82
2022/12/04 04:38:06;;;;;;;2.63;1.52;;;;;;;;;;5042674;28;20036;-83
2022/12/04 04:40:47;;;;;;;0.75;0.75;;;;;;;;;;5044839;28;20033;-83
2022/12/04 04:43:38;;;;;;;1.75;0.95;;;;;;;;;;5040765;28;20025;-83
2022/12/04 04:46:10;;;;;;;1.88;1.00;;;;;;;;;;5040282;28;20483;-84
2022/12/04 04:48:47;;;;;;;3.00;0.80;;;;;;;;;;5040054;28;20474;-85
2022/12/04 04:51:13;;;;;;;1.17;0.85;;;;;;;;;;5036610;28;20088;-86
2022/12/04 04:53:44;;;;;;;0.38;0.38;;;;;;;;;;5046023;28;20032;-84
2022/12/04 04:56:10;;;;;;;1.13;1.00;;;;;;;;;;5039423;28;20029;-83
2022/12/04 04:58:35;;;;;;;0.50;0.50;;;;;;;;;;5040804;28;20040;-85
2022/12/04 05:01:06;;;;;;;0.75;0.75;;;;;;;;;;5035040;28;20523;-84
2022/12/04 05:03:33;;;;;;;1.33;1.23;;;;;;;;;;5045361;28;20374;-87
2022/12/04 05:06:01;;;;;;;0.60;0.60;;;;;;;;;;5036469;28;20037;-86
2022/12/04 05:08:26;;;;;;;1.85;1.42;;;;;;;;;;5037430;28;20485;-84
2022/12/04 05:10:52;;;;;;;1.30;1.20;;;;;;;;;;5039114;28;20058;-84
2022/12/04 05:13:19;;;;;;;0.52;0.52;;;;;;;;;;5043152;28;20087;-84
2022/12/04 05:15:44;;;;;;;1.70;1.35;;;;;;;;;;5045173;28;20115;-85
2022/12/04 05:18:10;;;;;;;1.35;0.85;;;;;;;;;;5044405;28;20033;-88
2022/12/04 05:20:39;;;;;;;3.78;1.58;;;;;;;;;;5038831;28;20040;-86
2022/12/04 05:23:06;;;;;;;0.80;0.80;;;;;;;;;;5043157;28;20060;-83
2022/12/04 05:25:31;;;;;;;1.13;1.02;;;;;;;;;;5037757;28;20054;-83
2022/12/04 05:27:57;;;;;;;1.15;0.98;;;;;;;;;;5034846;28;20025;-83
2022/12/04 05:30:22;;;;;;;1.27;1.17;;;;;;;;;;5040495;28;20029;-83
2022/12/04 05:32:47;;;;;;;1.65;1.27;;;;;;;;;;5042281;28;20115;-84
2022/12/04 05:35:13;;;;;;;1.42;0.80;;;;;;;;;;5038703;28;20029;-88
2022/12/04 05:37:39;;;;;;;0.63;0.63;;;;;;;;;;5040501;28;20041;-85
2022/12/04 05:40:06;;;;;;;1.73;1.27;;;;;;;;;;5037794;28;20029;-84
2022/12/04 05:42:31;;;;;;;1.75;1.00;;;;;;;;;;5040518;28;20033;-82
2022/12/04 05:44:57;;;;;;;2.45;1.13;;;;;;;;;;5040363;28;20027;-87
2022/12/04 05:47:23;;;;;;;2.88;0.88;;;;;;;;;;5041741;28;20382;-86
2022/12/04 05:49:48;;;;;;;1.30;0.88;;;;;;;;;;5036195;28;20017;-84
2022/12/04 05:52:13;;;;;;;1.00;1.00;;;;;;;;;;5038548;28;20029;-85
2022/12/04 05:54:39;;;;;;;1.40;1.05;;;;;;;;;;5037471;28;20029;-84
2022/12/04 05:57:05;;;;;;;2.05;1.08;;;;;;;;;;5042337;28;20107;-85
2022/12/04 05:59:31;;;;;;;1.13;1.02;;;;;;;;;;5037866;28;20041;-84
2022/12/04 06:01:56;;;;;;;0.75;0.75;;;;;;;;;;5037139;28;20120;-82
2022/12/04 06:04:21;;;;;;;0.60;0.52;;;;;;;;;;5044192;28;20025;-84
2022/12/04 06:06:47;;;;;;;1.35;1.08;;;;;;;;;;5044151;28;20021;-83
2022/12/04 06:09:13;;;;;;;0.98;0.90;;;;;;;;;;5041062;28;20021;-85
2022/12/04 06:11:39;;;;;;;1.33;0.75;;;;;;;;;;5036450;28;20087;-86
2022/12/04 06:14:07;;;;;;;1.77;1.40;;;;;;;;;;5044349;28;20052;-88
2022/12/04 06:16:35;;;;;;;1.75;1.27;;;;;;;;;;5035230;28;20042;-85
2022/12/04 06:19:07;;;;;;;1.77;1.10;;;;;;;;;;5044547;28;20029;-87
2022/12/04 06:21:35;;;;;;;2.17;1.38;;;;;;;;;;5039326;28;20040;-85
2022/12/04 06:24:01;;;;;;;1.35;0.75;;;;;;;;;;5036595;28;20030;-85
2022/12/04 06:26:27;;;;;;;1.25;1.10;;;;;;;;;;5042189;28;20056;-85
2022/12/04 06:28:56;;;;;;;1.92;1.00;;;;;;;;;;5035276;28;20049;-86
2022/12/04 06:31:22;;;;;;;1.85;1.30;;;;;;;;;;5034738;28;20040;-87
2022/12/04 06:33:48;;;;;;;1.63;1.33;;;;;;;;;;5036737;28;20390;-87
2022/12/04 06:36:17;;;;;;;1.23;0.93;;;;;;;;;;5038767;28;20031;-85
2022/12/04 06:38:43;;;;;;;2.25;1.67;;;;;;;;;;5035743;28;20052;-83
2022/12/04 06:41:11;;;;;;;4.75;1.67;;;;;;;;;;5033973;28;20035;-85
2022/12/04 06:43:37;;;;;;;0.95;0.80;;;;;;;;;;5040197;28;20385;-85
2022/12/04 06:46:05;;;;;;;1.02;0.90;;;;;;;;;;5036751;28;20060;-84
2022/12/04 06:48:31;;;;;;;1.05;0.90;;;;;;;;;;5043926;28;20105;-86
2022/12/04 06:51:02;;;;;;;0.85;0.60;;;;;;;;;;5037418;28;20025;-85
2022/12/04 06:53:29;;;;;;;1.77;1.25;;;;;;;;;;5038140;28;20045;-86
2022/12/04 06:55:59;;;;;;;1.20;0.80;;;;;;;;;;5040509;28;20112;-86
2022/12/04 06:58:25;;;;;;;;;;;;;;;;;;5031987;28;20029;-83
2022/12/04 07:00:50;;;;;;;1.42;1.27;;;;;;;;;;5034250;28;19913;-84
2022/12/04 07:03:16;;;;;;;1.40;1.23;;;;;;;;;;5042781;28;20032;-83
2022/12/04 07:05:41;;;;;;;1.38;1.20;;;;;;;;;;5040061;28;20044;-84
2022/12/04 07:08:07;;;;;;;0.85;0.77;;;;;;;;;;5040582;28;20153;-84
2022/12/04 07:10:35;;;;;;;1.40;1.30;;;;;;;;;;5034173;28;20033;-84
2022/12/04 07:13:01;;;;;;;2.92;1.95;;;;;;;;;;5043223;28;20385;-84
2022/12/04 07:15:26;;;;;;;3.28;2.08;;;;;;;;;;5039173;28;20029;-83
2022/12/04 07:17:52;;;;;;;3.67;2.80;;;;;;;;;;5040961;28;20469;-85
2022/12/04 07:20:17;;;;;;;1.85;1.75;;;;;;;;;;5038080;28;20090;-83
2022/12/04 07:22:42;;;;;;;2.47;1.95;;;;;;;;;;5040318;28;20021;-84
2022/12/04 07:25:08;;;;;;;1.92;1.50;;;;;;;;;;5039176;28;20053;-83
2022/12/04 07:27:33;;;;;;;1.80;1.55;;;;;;;;;;5037642;28;20393;-84
2022/12/04 07:29:59;;;;;;;2.65;1.73;;;;;;;;;;5037055;28;20783;-84
2022/12/04 07:32:24;;;;;;;14.63;8.10;;;;;;;;;;5039851;28;20029;-82
2022/12/04 07:34:50;;;;;;;17.45;11.00;;;;;;;;;;5039359;28;20037;-84
2022/12/04 07:37:15;;;;;;;2.80;1.95;;;;;;;;;;5036950;28;20048;-83
2022/12/04 07:39:41;;;;;;;1.58;1.48;;;;;;;;;;5038927;28;20101;-83
2022/12/04 07:42:06;;;;;;;1.92;1.58;;;;;;;;;;5038458;28;20472;-82
2022/12/04 07:44:32;;;;;;;2.38;1.90;;;;;;;;;;5043233;28;20029;-81
2022/12/04 07:46:57;;;;;;;1.50;1.40;;;;;;;;;;5040465;28;20025;-83
2022/12/04 07:49:22;;;;;;;1.73;1.25;;;;;;;;;;5038653;28;20025;-82
2022/12/04 07:51:48;;;;;;;2.60;1.67;;;;;;;;;;5038060;28;20029;-81
2022/12/04 07:54:13;;;;;;;2.05;1.50;;;;;;;;;;5037052;28;20033;-84
2022/12/04 07:56:39;;;;;;;2.13;1.35;;;;;;;;;;5037340;28;20045;-80
2022/12/04 07:59:04;;;;;;;2.45;1.92;;;;;;;;;;5037042;28;20134;-82
2022/12/04 08:01:30;;;;;;;2.25;1.50;;;;;;;;;;5038678;28;20020;-82
2022/12/04 08:03:57;;;;;;;2.80;1.73;;;;;;;;;;5043340;28;20045;-82
2022/12/04 08:06:25;;;;;;;4.72;1.85;;;;;;;;;;5035933;28;20033;-82
2022/12/04 08:08:51;;;;;;;2.45;1.63;;;;;;;;;;5036563;28;20029;-81
2022/12/04 08:11:21;;;;;;;1.63;1.08;;;;;;;;;;5033927;28;20021;-81
2022/12/04 08:13:47;;;;;;;2.05;1.80;;;;;;;;;;5032551;28;20112;-83
2022/12/04 08:16:14;;;;;;;1.88;1.33;;;;;;;;;;5038568;28;20060;-81
2022/12/04 08:18:45;;;;;;;2.75;1.90;;;;;;;;;;5037554;28;20030;-82
2022/12/04 08:21:19;;;;;;;3.08;2.05;;;;;;;;;;5032205;28;20029;-83
2022/12/04 08:23:45;;;;;;;2.72;1.50;;;;;;;;;;5033728;28;20477;-83
2022/12/04 08:26:11;;;;;;;3.08;1.92;;;;;;;;;;5040027;28;20078;-82
2022/12/04 08:28:37;;;;;;;2.35;1.70;;;;;;;;;;5040123;28;20081;-85
2022/12/04 08:31:17;;;;;;;3.47;1.83;;;;;;;;;;5035297;28;20065;-86
2022/12/04 08:33:44;;;;;;;3.28;1.63;;;;;;;;;;5040155;28;20029;-82
2022/12/04 08:36:15;;;;;;;2.22;1.80;;;;;;;;;;5039695;28;20028;-83
2022/12/04 08:38:40;;;;;;;2.35;1.40;;;;;;;;;;5036800;28;20089;-85
2022/12/04 08:41:17;;;;;;;2.33;2.13;;;;;;;;;;5036871;28;20052;-82
2022/12/04 08:43:43;;;;;;;3.00;1.73;;;;;;;;;;5042246;28;20027;-82
2022/12/04 08:46:14;;;;;;;3.47;1.83;;;;;;;;;;5038689;28;20112;-80
2022/12/04 08:48:43;;;;;;;1.17;0.90;;;;;;;;;;5040926;28;20021;-85
2022/12/04 08:51:14;;;;;;;1.33;0.68;;;;;;;;;;5043986;28;20355;-82
2022/12/04 08:53:47;;;;;;;2.45;1.30;;;;;;;;;;5039374;28;20029;-84
2022/12/04 08:56:13;;;;;;;1.23;1.10;;;;;;;;;;5045013;28;20033;-81
2022/12/04 08:58:38;;;;;;;1.52;0.88;;;;;;;;;;5040861;28;20041;-82
2022/12/04 09:01:13;;;;;;;2.47;1.55;;;;;;;;;;5037996;28;20044;-84
2022/12/04 09:03:39;;;;;;;2.50;1.30;;;;;;;;;;5034907;28;20862;-83
2022/12/04 09:06:06;;;;;;;1.90;1.05;;;;;;;;;;5036223;28;20025;-84
2022/12/04 09:08:32;;;;;;;2.15;1.27;;;;;;;;;;5036834;28;20033;-80
2022/12/04 09:11:13;;;;;;;1.33;0.93;;;;;;;;;;5037214;28;20033;-81
2022/12/04 09:13:39;;;;;;;1.23;0.85;;;;;;;;;;5037380;28;20033;-81
2022/12/04 09:16:10;;;;;;;1.95;1.42;;;;;;;;;;5037715;28;20021;-80
2022/12/04 09:18:37;;;;;;;1.52;0.90;;;;;;;;;;5036014;28;20037;-80
2022/12/04 09:21:05;;;;;;;1.45;1.15;;;;;;;;;;5039647;28;20041;-81
2022/12/04 09:23:33;;;;;;;1.73;1.35;;;;;;;;;;5036353;28;20037;-80
2022/12/04 09:25:58;;;;;;;2.90;1.30;;;;;;;;;;5044262;28;20076;-81
2022/12/04 09:28:24;;;;;;;2.05;1.40;;;;;;;;;;5043389;28;20028;-83
2022/12/04 09:30:59;;;;;;;1.17;0.88;;;;;;;;;;5045761;28;20025;-82
2022/12/04 09:33:25;;;;;;;0.47;0.40;;;;;;;;;;5036199;28;20031;-83
2022/12/04 09:35:51;;;;;;;1.05;0.95;;;;;;;;;;5040941;28;20473;-84
2022/12/04 09:38:16;;;;;;;0.60;0.50;;;;;;;;;;5041260;28;20188;-83
2022/12/04 09:41:26;;;;;;;1.58;0.80;;;;;;;;;;5039126;28;20083;-83
2022/12/04 09:43:52;;;;;;;4.03;1.23;;;;;;;;;;5052706;28;20047;-84
2022/12/04 09:46:59;;;;;;;1.67;1.08;;;;;;;;;;5039258;28;20026;-81
2022/12/04 09:49:27;;;;;;;0.73;0.73;;;;;;;;;;5032188;28;20037;-82
2022/12/04 09:51:57;;;;;;;2.95;1.27;;;;;;;;;;5037738;28;20363;-82
2022/12/04 09:54:28;;;;;;;2.15;1.65;;;;;;;;;;5040763;28;20033;-80
2022/12/04 09:57:03;;;;;;;3.50;1.27;;;;;;;;;;5037841;28;20056;-82
2022/12/04 09:59:31;;;;;;;1.95;1.23;;;;;;;;;;5039693;28;20120;-85
2022/12/04 10:02:14;;;;;;;1.15;0.85;;;;;;;;;;5033225;28;20028;-82
2022/12/04 10:04:39;;;;;;;1.13;0.82;;;;;;;;;;5041792;28;20354;-82
2022/12/04 10:07:17;;;;;;;1.15;0.95;;;;;;;;;;5038378;28;20033;-84
2022/12/04 10:09:54;;;;;;;1.65;1.50;;;;;;;;;;5037498;28;20017;-81
2022/12/04 10:12:33;;;;;;;1.52;1.23;;;;;;;;;;5033098;28;20560;-83
2022/12/04 10:15:11;;;;;;;1.75;1.05;;;;;;;;;;5035789;28;20056;-81
2022/12/04 10:17:47;;;;;;;0.60;0.60;;;;;;;;;;5040938;28;20033;-84
2022/12/04 10:20:43;;;;;;;1.38;0.90;;;;;;;;;;5037290;28;20401;-83
2022/12/04 10:23:30;;;;;;;1.33;0.95;;;;;;;;;;5035161;28;20490;-82
2022/12/04 10:25:57;;;;;;;1.23;1.10;;;;;;;;;;5035808;28;20045;-82
2022/12/04 10:28:28;;;;;;;2.13;1.58;;;;;;;;;;5035057;28;20021;-83
2022/12/04 10:30:58;;;;;;;2.70;1.52;;;;;;;;;;5040956;28;20108;-81
2022/12/04 10:33:38;;;;;;;1.73;1.17;;;;;;;;;;5036499;28;20024;-82
2022/12/04 10:36:05;;;;;;;1.98;1.30;;;;;;;;;;5040271;28;20385;-82
2022/12/04 10:38:44;;;;;;;4.32;1.45;;;;;;;;;;5039254;28;20047;-81
2022/12/04 10:41:34;;;;;;;3.47;1.43;;;;;;;;;;5041356;28;20039;-83
2022/12/04 10:44:00;;;;;;;1.85;1.25;;;;;;;;;;5043800;28;20404;-84
2022/12/04 10:46:28;;;;;;;1.20;0.95;;;;;;;;;;5038402;28;20025;-83
2022/12/04 10:49:02;;;;;;;1.75;1.33;;;;;;;;;;5037434;28;20028;-84
2022/12/04 10:51:37;;;;;;;3.20;1.90;;;;;;;;;;5036867;28;20029;-82
2022/12/04 10:54:21;;;;;;;2.97;1.90;;;;;;;;;;5030529;28;20048;-81
2022/12/04 10:56:51;;;;;;;1.73;1.38;;;;;;;;;;5040038;28;20106;-84
2022/12/04 10:59:16;;;;;;;2.50;1.35;;;;;;;;;;5033788;28;20032;-82
2022/12/04 11:01:43;;;;;;;1.10;0.70;;;;;;;;;;5039829;28;20033;-81
2022/12/04 11:04:21;;;;;;;2.08;1.40;;;;;;;;;;5034623;28;20516;-80
2022/12/04 11:06:51;;;;;;;2.58;1.75;;;;;;;;;;5036977;28;20032;-80
2022/12/04 11:09:23;;;;;;;2.08;1.45;;;;;;;;;;5040806;28;20108;-81
2022/12/04 11:11:50;;;;;;;1.20;0.90;;;;;;;;;;5030910;28;20095;-84
2022/12/04 11:14:20;;;;;;;4.20;2.10;;;;;;;;;;5038252;28;20057;-80
2022/12/04 11:16:49;;;;;;;2.63;1.80;;;;;;;;;;5037555;28;20025;-81
2022/12/04 11:19:23;;;;;;;1.27;1.10;;;;;;;;;;5040630;28;20064;-82
2022/12/04 11:21:49;;;;;;;1.38;1.25;;;;;;;;;;5042380;28;20051;-81
2022/12/04 11:24:22;;;;;;;3.17;1.92;;;;;;;;;;5039334;28;20023;-81
2022/12/04 11:26:49;;;;;;;1.13;0.90;;;;;;;;;;5037012;28;20060;-84
2022/12/04 11:29:18;;;;;;;2.10;1.17;;;;;;;;;;5042499;28;20025;-84
2022/12/04 11:31:54;;;;;;;3.13;2.03;;;;;;;;;;5041175;28;20053;-84
2022/12/04 11:34:24;;;;;;;1.70;1.33;;;;;;;;;;5034461;28;20025;-83
2022/12/04 11:36:52;;;;;;;;;;;;;;;;;;5042377;28;20086;-84
2022/12/04 11:39:37;;;;;;;4.85;3.42;;;;;;;;;;5035156;28;19925;-82
2022/12/04 11:42:12;;;;;;;2.47;1.73;;;;;;;;;;5032861;28;20079;-84
2022/12/04 11:44:39;;;;;;;1.75;1.05;;;;;;;;;;5035258;28;20120;-83
2022/12/04 11:47:14;;;;;;;3.85;2.00;;;;;;;;;;5038936;28;20026;-82
2022/12/04 11:49:41;;;;;;;1.58;1.30;;;;;;;;;;5036987;28;20020;-80
2022/12/04 11:52:31;;;;;;;2.75;1.60;;;;;;;;;;5040502;28;20071;-83
2022/12/04 11:55:06;;;;;;;2.63;1.77;;;;;;;;;;5042906;28;20049;-81
2022/12/04 11:57:52;;;;;;;2.22;1.83;;;;;;;;;;5046185;28;20095;-82
2022/12/04 12:00:20;;;;;;;2.00;1.38;;;;;;;;;;5040459;28;20037;-83
2022/12/04 12:03:04;;;;;;;3.30;2.15;;;;;;;;;;5038970;28;20061;-82
2022/12/04 12:05:57;;;;;;;2.97;2.28;;;;;;;;;;5046379;28;20127;-82
2022/12/04 12:08:50;;;;;;;2.40;1.95;;;;;;;;;;5046630;28;20120;-83
2022/12/04 12:11:23;;;;;;;2.17;1.63;;;;;;;;;;5039664;28;20029;-82
2022/12/04 12:13:58;;;;;;;1.75;1.23;;;;;;;;;;5040828;28;20472;-81
2022/12/04 12:16:38;;;;;;;2.97;1.88;;;;;;;;;;5040674;28;20075;-81
2022/12/04 12:19:25;;;;;;;4.55;1.98;;;;;;;;;;5042829;28;20057;-82
2022/12/04 12:22:16;;;;;;;2.03;1.60;;;;;;;;;;5036123;28;20056;-81
2022/12/04 12:25:03;;;;;;;3.40;1.55;;;;;;;;;;5044601;28;20134;-81
2022/12/04 12:28:06;;;;;;;2.35;1.33;;;;;;;;;;5040374;28;20046;-81
2022/12/04 12:30:55;;;;;;;3.53;2.35;;;;;;;;;;5045888;28;20033;-82
2022/12/04 12:33:30;;;;;;;1.63;1.45;;;;;;;;;;5043271;28;20083;-80
2022/12/04 12:35:55;;;;;;;2.80;1.88;;;;;;;;;;5038786;28;20037;-80
2022/12/04 12:38:32;;;;;;;1.85;1.33;;;;;;;;;;5039796;28;20026;-80
2022/12/04 12:41:03;;;;;;;2.05;1.83;;;;;;;;;;5037463;28;20039;-80
2022/12/04 12:43:32;;;;;;;2.90;1.70;;;;;;;;;;5042763;28;20025;-80
2022/12/04 12:46:15;;;;;;;6.53;3.73;;;;;;;;;;5041228;28;20083;-80
2022/12/04 12:49:02;;;;;;;4.35;2.13;;;;;;;;;;5044977;28;20100;-80
2022/12/04 12:51:43;;;;;;;3.20;1.83;;;;;;;;;;5038863;28;20110;-80
2022/12/04 12:54:39;;;;;;;1.98;1.70;;;;;;;;;;5036217;28;20482;-80
2022/12/04 12:57:32;;;;;;;1.77;1.58;;;;;;;;;;5046647;28;20310;-80
2022/12/04 13:00:13;;;;;;;2.50;1.92;;;;;;;;;;5037723;28;20532;-80
2022/12/04 13:02:50;;;;;;;2.78;2.15;;;;;;;;;;5044245;28;20033;-81
2022/12/04 13:05:23;;;;;;;4.05;2.50;;;;;;;;;;5045257;28;20052;-81
2022/12/04 13:08:14;;;;;;;2.25;1.75;;;;;;;;;;5040956;28;20040;-79
2022/12/04 13:10:47;;;;;;;2.70;1.83;;;;;;;;;;5046548;28;20017;-79
2022/12/04 13:13:20;;;;;;;1.80;1.58;;;;;;;;;;5042173;28;20017;-82
2022/12/04 13:15:48;;;;;;;2.58;1.77;;;;;;;;;;5038013;28;20025;-82
2022/12/04 13:18:29;;;;;;;4.20;3.40;;;;;;;;;;5041632;28;20486;-80
2022/12/04 13:20:59;;;;;;;2.78;2.17;;;;;;;;;;5040250;28;20502;-79
2022/12/04 13:23:55;;;;;;;2.60;1.42;;;;;;;;;;5035360;28;20083;-80
2022/12/04 13:27:07;;;;;;;3.25;1.92;;;;;;;;;;5046328;28;20396;-82
2022/12/04 13:29:55;;;;;;;2.42;1.90;;;;;;;;;;5015824;28;20041;-80
2022/12/04 13:32:39;;;;;;;2.78;1.98;;;;;;;;;;5040507;28;20466;-80
2022/12/04 13:35:30;;;;;;;2.35;1.48;;;;;;;;;;5046325;28;20037;-79
2022/12/04 13:38:14;;;;;;;3.10;2.35;;;;;;;;;;5044773;28;20021;-80
2022/12/04 13:40:50;;;;;;;3.47;2.78;;;;;;;;;;5042044;28;20036;-80
2022/12/04 13:43:25;;;;;;;3.80;1.27;;;;;;;;;;5044144;28;20045;-80
2022/12/04 13:45:53;;;;;;;3.97;1.35;;;;;;;;;;5042602;28;20535;-80
2022/12/04 13:48:29;;;;;;;3.17;1.40;;;;;;;;;;5039282;28;20021;-80
2022/12/04 13:51:05;;;;;;;2.53;1.77;;;;;;;;;;5037647;28;20032;-79
2022/12/04 13:53:36;;;;;;;3.63;2.00;;;;;;;;;;5037794;28;20511;-80
2022/12/04 13:56:03;;;;;;;2.08;1.75;;;;;;;;;;5039151;28;20026;-80
2022/12/04 13:58:33;;;;;;;2.90;1.75;;;;;;;;;;5040860;28;20036;-80
2022/12/04 14:01:02;;;;;;;3.20;2.10;;;;;;;;;;5038504;28;20346;-81
2022/12/04 14:03:36;;;;;;;2.42;2.05;;;;;;;;;;5038354;28;20108;-80
2022/12/04 14:06:46;;;;;;;4.45;1.90;;;;;;;;;;5041254;28;20029;-80
2022/12/04 14:09:29;;;;;;;1.60;1.40;;;;;;;;;;5039877;28;20053;-79
2022/12/04 14:12:02;;;;;;;9.23;1.65;;;;;;;;;;5042225;28;20036;-81
2022/12/04 14:14:53;;;;;;;4.00;2.72;;;;;;;;;;5042378;28;20040;-80
2022/12/04 14:17:25;;;;;;;7.35;4.22;;;;;;;;;;5038063;28;20035;-80
2022/12/04 14:19:57;;;;;;;5.65;3.60;;;;;;;;;;5037460;28;20112;-81
2022/12/04 14:22:34;;;;;;;2.28;1.30;;;;;;;;;;5041001;28;20029;-80
2022/12/04 14:25:33;;;;;;;2.58;1.45;;;;;;;;;;5043794;28;20021;-81
2022/12/04 14:27:59;;;;;;;1.52;1.00;;;;;;;;;;5045556;28;20090;-80
2022/12/04 14:30:38;;;;;;;2.75;1.33;;;;;;;;;;5038402;28;20416;-80
2022/12/04 14:33:20;;;;;;;1.30;1.00;;;;;;;;;;5036019;28;20527;-81
2022/12/04 14:36:01;;;;;;;2.00;1.00;;;;;;;;;;5038153;28;20087;-81
2022/12/04 14:38:27;;;;;;;1.33;1.00;;;;;;;;;;5044462;28;20029;-80
2022/12/04 14:40:57;;;;;;;4.07;1.90;;;;;;;;;;5044117;28;20045;-81
2022/12/04 14:43:37;;;;;;;4.03;1.70;;;;;;;;;;5045106;28;20026;-80
2022/12/04 14:46:02;;;;;;;;;;;;;;;;;;5043966;28;20389;-81
2022/12/04 14:48:56;;;;;;;3.28;2.33;;;;;;;;;;5036267;28;19923;-80
2022/12/04 14:51:40;;;;;;;2.50;2.10;;;;;;;;;;5035430;28;20079;-82
2022/12/04 14:54:32;;;;;;;1.75;1.65;;;;;;;;;;5038369;28;20459;-80
2022/12/04 14:57:37;;;;;;;2.28;2.05;;;;;;;;;;5044269;28;20485;-81
2022/12/04 15:00:04;;;;;;;3.47;2.40;;;;;;;;;;5039242;28;20033;-81
2022/12/04 15:02:40;;;;;;;4.65;2.30;;;;;;;;;;5041957;28;20037;-81
2022/12/04 15:05:15;;;;;;;2.22;1.85;;;;;;;;;;5039136;28;20062;-80
2022/12/04 15:07:49;;;;;;;5.88;3.05;;;;;;;;;;5036741;28;20040;-80
2022/12/04 15:13:09;;;;;;;2.20;1.55;;;;;;;;;;5040221;28;20028;-80
2022/12/04 15:15:35;;;;;;;4.00;2.15;;;;;;;;;;5045954;28;20076;-80
2022/12/04 15:18:14;;;;;;;1.25;1.15;;;;;;;;;;5041856;28;20025;-81
2022/12/04 15:20:50;;;;;;;22.67;10.80;;;;;;;;;;5043568;28;20029;-81
2022/12/04 15:23:17;;;;;;;6.60;3.08;;;;;;;;;;5042557;28;20426;-80
2022/12/04 15:25:45;;;;;;;2.30;1.58;;;;;;;;;;5044032;28;20050;-80
2022/12/04 15:28:25;;;;;;;1.40;1.30;;;;;;;;;;5047183;28;20031;-80